Time;durP1;ratioP1;P1;durP2;ratioP2;P2;SDS_P1;SDS_P2;PMS_P1;PMS_P2;Temp;Humidity;BMP_temperature;BMP_pressure;BME280_temperature;BME280_humidity;BME280_pressure;Samples;Min_cycle;Max_cycle;Signal;HPM_P1;HPM_P2
2023/05/11 00:00:49;;;;;;;;;;;;;;;11.84;100.00;101410.63;5057895;28;19935;-60
2023/05/11 00:03:14;;;;;;;;;;;;;;;11.85;100.00;101404.31;5065627;28;19928;-60
2023/05/11 00:05:39;;;;;;;;;;;;;;;11.85;100.00;101398.16;5057046;28;20010;-61
2023/05/11 00:08:04;;;;;;;;;;;;;;;11.83;100.00;101400.97;5062339;28;19916;-60
2023/05/11 00:10:29;;;;;;;;;;;;;;;11.83;100.00;101403.63;5065913;28;19916;-61
2023/05/11 00:12:55;;;;;;;;;;;;;;;11.75;100.00;101390.31;5062384;28;19987;-59
2023/05/11 00:15:20;;;;;;;;;;;;;;;11.77;100.00;101393.63;5055011;28;19916;-59
2023/05/11 00:17:47;;;;;;;;;;;;;;;11.74;100.00;101396.63;5065879;28;21261;-60
2023/05/11 00:20:12;;;;;;;;;;;;;;;11.71;100.00;101387.13;5062969;28;19916;-60
2023/05/11 00:22:38;;;;;;;;;;;;;;;11.68;100.00;101382.16;5063977;28;19928;-60
2023/05/11 00:25:03;;;;;;;;;;;;;;;11.59;100.00;101380.47;5069144;28;19963;-59
2023/05/11 00:27:28;;;;;;;;;;;;;;;11.64;100.00;101385.31;5066027;28;19916;-59
2023/05/11 00:29:53;;;;;;;;;;;;;;;11.60;100.00;101390.13;5058270;28;19920;-60
2023/05/11 00:32:18;;;;;;;;;;;;;;;11.56;100.00;101382.63;5063532;28;19912;-60
2023/05/11 00:34:44;;;;;;;;;;;;;;;11.53;100.00;101382.94;5060474;28;19920;-60
2023/05/11 00:37:09;;;;;;;;;;;;;;;11.54;100.00;101387.25;5059753;28;20041;-61
2023/05/11 00:39:39;;;;;;;;;;;;;;;11.55;100.00;101397.75;5065554;28;19917;-61
2023/05/11 00:42:04;;;;;;;;;;;;;;;11.58;100.00;101393.94;5065425;28;19917;-61
2023/05/11 00:44:29;;;;;;;;;;;;;;;11.60;100.00;101392.78;5066136;28;19924;-61
2023/05/11 00:46:54;;;;;;;;;;;;;;;11.62;100.00;101392.63;5059757;28;20247;-61
2023/05/11 00:49:21;;;;;;;;;;;;;;;11.66;100.00;101392.13;5057364;28;19920;-60
2023/05/11 00:51:46;;;;;;;;;;;;;;;11.72;100.00;101393.28;5061289;28;19947;-63
2023/05/11 00:54:14;;;;;;;;;;;;;;;11.76;100.00;101394.63;5059954;28;20369;-62
2023/05/11 00:56:40;;;;;;;;;;;;;;;11.80;100.00;101403.97;5059560;28;19978;-62
2023/05/11 00:59:05;;;;;;;;;;;;;;;11.84;100.00;101399.16;5066716;28;20387;-62
2023/05/11 01:01:30;;;;;;;;;;;;;;;11.86;100.00;101403.34;5060749;28;20587;-62
2023/05/11 01:03:56;;;;;;;;;;;;;;;11.90;100.00;101404.66;5058868;28;19917;-60
2023/05/11 01:06:35;;;;;;;;;;;;;;;11.94;100.00;101407.81;5061576;28;19952;-60
2023/05/11 01:09:08;;;;;;;;;;;;;;;11.98;100.00;101411.81;5062623;28;19995;-62
2023/05/11 01:11:42;;;;;;;;;;;;;;;12.00;100.00;101407.16;5061701;28;20007;-60
2023/05/11 01:14:26;;;;;;;;;;;;;;;12.02;100.00;101402.50;5068382;28;19959;-60
2023/05/11 01:16:54;;;;;;;;;;;;;;;12.03;100.00;101404.16;5056200;28;20386;-60
2023/05/11 01:19:34;;;;;;;;;;;;;;;11.99;100.00;101401.00;5057664;28;19972;-60
2023/05/11 01:22:03;;;;;;;;;;;;;;;11.93;100.00;101401.66;5059477;28;19935;-59
2023/05/11 01:24:39;;;;;;;;;;;;;;;11.89;100.00;101402.16;5071703;28;19912;-59
2023/05/11 01:27:20;;;;;;;;;;;;;;;11.84;100.00;101407.97;5062517;28;19917;-59
2023/05/11 01:29:51;;;;;;;;;;;;;;;11.80;100.00;101401.31;5065328;28;19917;-60
2023/05/11 01:32:21;;;;;;;;;;;;;;;11.77;100.00;101409.59;5061490;28;19943;-60
2023/05/11 01:34:47;;;;;;;;;;;;;;;11.76;100.00;101406.09;5053331;28;19924;-60
2023/05/11 01:37:18;;;;;;;;;;;;;;;11.75;100.00;101407.09;5063051;28;19973;-60
2023/05/11 01:39:51;;;;;;;;;;;;;;;11.74;100.00;101415.25;5064208;28;19912;-60
2023/05/11 01:42:19;;;;;;;;;;;;;;;11.72;100.00;101403.94;5068154;28;19916;-60
2023/05/11 01:44:47;;;;;;;;;;;;;;;11.70;100.00;101412.09;5058376;28;19924;-59
2023/05/11 01:47:14;;;;;;;;;;;;;;;11.69;100.00;101407.75;5067377;28;19920;-60
2023/05/11 01:49:41;;;;;;;;;;;;;;;11.70;100.00;101411.25;5069930;28;20416;-60
2023/05/11 01:52:07;;;;;;;;;;;;;;;11.69;100.00;101418.41;5061831;28;20007;-59
2023/05/11 01:54:33;;;;;;;;;;;;;;;11.68;100.00;101421.22;5074191;28;19917;-60
2023/05/11 01:57:00;;;;;;;;;;;;;;;11.68;100.00;101415.91;5068909;28;19916;-60
2023/05/11 01:59:26;;;;;;;;;;;;;;;11.68;100.00;101423.88;5069289;28;19925;-59
2023/05/11 02:01:51;;;;;;;;;;;;;;;11.68;100.00;101422.06;5062104;28;20443;-61
2023/05/11 02:04:18;;;;;;;;;;;;;;;11.68;100.00;101426.53;5070638;28;19913;-60
2023/05/11 02:06:45;;;;;;;;;;;;;;;11.67;100.00;101422.22;5068985;28;19916;-60
2023/05/11 02:09:12;;;;;;;;;;;;;;;11.67;100.00;101427.53;5067675;28;20272;-60
2023/05/11 02:11:39;;;;;;;;;;;;;;;11.66;100.00;101423.22;5069919;28;19917;-62
2023/05/11 02:14:05;;;;;;;;;;;;;;;11.67;100.00;101424.88;5057901;28;19920;-61
2023/05/11 02:16:31;;;;;;;;;;;;;;;11.66;100.00;101424.06;5059617;28;20397;-63
2023/05/11 02:18:57;;;;;;;;;;;;;;;11.66;100.00;101415.25;5066450;28;19916;-62
2023/05/11 02:21:23;;;;;;;;;;;;;;;11.66;100.00;101413.41;5058366;28;20559;-60
2023/05/11 02:23:50;;;;;;;;;;;;;;;11.66;100.00;101409.91;5058018;28;20575;-60
2023/05/11 02:26:15;;;;;;;;;;;;;;;11.65;100.00;101409.09;5070386;28;20275;-61
2023/05/11 02:28:41;;;;;;;;;;;;;;;11.64;100.00;101412.75;5069010;28;19919;-60
2023/05/11 02:31:08;;;;;;;;;;;;;;;11.64;100.00;101407.41;5059634;28;19921;-60
2023/05/11 02:33:36;;;;;;;;;;;;;;;11.67;100.00;101406.25;5067192;28;19934;-60
2023/05/11 02:36:02;;;;;;;;;;;;;;;11.69;100.00;101409.59;5069530;28;19924;-60
2023/05/11 02:38:32;;;;;;;;;;;;;;;11.70;100.00;101409.41;5068565;28;20385;-62
2023/05/11 02:40:59;;;;;;;;;;;;;;;11.71;100.00;101411.09;5067347;28;19962;-62
2023/05/11 02:43:28;;;;;;;;;;;;;;;11.72;100.00;101410.09;5063844;28;19924;-61
2023/05/11 02:45:57;;;;;;;;;;;;;;;11.74;100.00;101405.44;5066013;28;19974;-60
2023/05/11 02:48:25;;;;;;;;;;;;;;;11.76;100.00;101406.09;5068716;28;19912;-61
2023/05/11 02:50:51;;;;;;;;;;;;;;;11.79;100.00;101404.97;5064487;28;19921;-59
2023/05/11 02:53:18;;;;;;;;;;;;;;;11.81;100.00;101400.31;5067338;28;19970;-58
2023/05/11 02:55:44;;;;;;;;;;;;;;;11.84;100.00;101405.31;5067869;28;19916;-59
2023/05/11 02:58:10;;;;;;;;;;;;;;;11.84;100.00;101402.63;5066272;28;20431;-60
2023/05/11 03:00:35;;;;;;;;;;;;;;;11.83;100.00;101406.28;5070275;28;19923;-60
2023/05/11 03:03:00;;;;;;;;;;;;;;;11.79;100.00;101403.13;5069691;28;20324;-60
2023/05/11 03:05:25;;;;;;;;;;;;;;;11.76;100.00;101407.94;5063737;28;19927;-60
2023/05/11 03:07:52;;;;;;;;;;;;;;;11.71;100.00;101407.59;5060161;28;19916;-60
2023/05/11 03:10:17;;;;;;;;;;;;;;;11.66;100.00;101410.75;5067451;28;19916;-60
2023/05/11 03:12:42;;;;;;;;;;;;;;;11.64;100.00;101407.41;5065958;28;20389;-60
2023/05/11 03:15:10;;;;;;;;;;;;;;;11.61;100.00;101401.59;5067619;28;19916;-59
2023/05/11 03:17:36;;;;;;;;;;;;;;;11.58;100.00;101404.59;5057126;28;19924;-60
2023/05/11 03:20:02;;;;;;;;;;;;;;;11.56;100.00;101412.69;5054644;28;19925;-60
2023/05/11 03:22:29;;;;;;;;;;;;;;;11.57;100.00;101411.75;5063420;28;19959;-60
2023/05/11 03:24:54;;;;;;;;;;;;;;;11.56;100.00;101410.03;5058023;28;19921;-60
2023/05/11 03:27:20;;;;;;;;;;;;;;;11.56;100.00;101414.53;5057209;28;19923;-60
2023/05/11 03:29:45;;;;;;;;;;;;;;;11.56;100.00;101404.72;5067079;28;20843;-60
2023/05/11 03:32:11;;;;;;;;;;;;;;;11.57;100.00;101406.41;5068715;28;19912;-60
2023/05/11 03:34:36;;;;;;;;;;;;;;;11.52;100.00;101406.06;5058773;28;20395;-60
2023/05/11 03:37:02;;;;;;;;;;;;;;;11.44;100.00;101409.53;5066796;28;19917;-62
2023/05/11 03:39:29;;;;;;;;;;;;;;;11.35;100.00;101415.81;5065542;28;19916;-62
2023/05/11 03:41:55;;;;;;;;;;;;;;;11.29;100.00;101407.66;5064196;28;20395;-62
2023/05/11 03:44:20;;;;;;;;;;;;;;;11.24;100.00;101413.44;5050579;28;19916;-60
2023/05/11 03:46:46;;;;;;;;;;;;;;;11.21;100.00;101408.44;5060518;28;19927;-60
2023/05/11 03:49:12;;;;;;;;;;;;;;;11.19;100.00;101418.41;5068266;28;19913;-60
2023/05/11 03:51:37;;;;;;;;;;;;;;;11.18;100.00;101412.28;5061020;28;19916;-60
2023/05/11 03:54:04;;;;;;;;;;;;;;;11.20;100.00;101412.09;5066507;28;19916;-60
2023/05/11 03:56:29;;;;;;;;;;;;;;;11.24;100.00;101412.63;5058938;28;19920;-61
2023/05/11 03:58:55;;;;;;;;;;;;;;;11.27;100.00;101413.13;5066012;28;19966;-61
2023/05/11 04:01:21;;;;;;;;;;;;;;;11.31;100.00;101419.81;5070448;28;19916;-60
2023/05/11 04:03:49;;;;;;;;;;;;;;;11.35;100.00;101407.84;5061632;28;19987;-61
2023/05/11 04:06:16;;;;;;;;;;;;;;;11.40;100.00;101412.69;5064117;28;19946;-60
2023/05/11 04:08:41;;;;;;;;;;;;;;;11.43;100.00;101410.53;5065807;28;20374;-60
2023/05/11 04:11:06;;;;;;;;;;;;;;;11.45;100.00;101405.88;5059166;28;19924;-59
2023/05/11 04:13:31;;;;;;;;;;;;;;;11.46;100.00;101410.19;5066962;28;20007;-60
2023/05/11 04:15:56;;;;;;;;;;;;;;;11.45;100.00;101411.19;5067321;28;19923;-60
2023/05/11 04:18:22;;;;;;;;;;;;;;;11.44;100.00;101409.53;5066570;28;20011;-59
2023/05/11 04:20:47;;;;;;;;;;;;;;;11.44;100.00;101417.50;5066359;28;19977;-60
2023/05/11 04:23:13;;;;;;;;;;;;;;;11.44;100.00;101420.16;5058348;28;20385;-60
2023/05/11 04:25:38;;;;;;;;;;;;;;;11.42;100.00;101408.88;5065435;28;19932;-60
2023/05/11 04:28:04;;;;;;;;;;;;;;;11.44;100.00;101420.16;5061681;28;19916;-60
2023/05/11 04:30:29;;;;;;;;;;;;;;;11.46;100.00;101426.16;5065559;28;20042;-61
2023/05/11 04:32:54;;;;;;;;;;;;;;;11.49;100.00;101425.00;5070879;28;19958;-61
2023/05/11 04:35:20;;;;;;;;;;;;;;;11.50;100.00;101421.34;5069200;28;20379;-60
2023/05/11 04:37:46;;;;;;;;;;;;;;;11.53;100.00;101420.19;5071372;28;20028;-59
2023/05/11 04:40:11;;;;;;;;;;;;;;;11.55;100.00;101426.16;5070366;28;20001;-60
2023/05/11 04:42:37;;;;;;;;;;;;;;;11.58;100.00;101434.69;5064180;28;20302;-60
2023/05/11 04:45:02;;;;;;;;;;;;;;;11.62;100.00;101424.53;5071707;28;19916;-59
2023/05/11 04:47:27;;;;;;;;;;;;;;;11.65;100.00;101425.06;5068218;28;19999;-60
2023/05/11 04:49:52;;;;;;;;;;;;;;;11.69;100.00;101414.91;5069738;28;19931;-60
2023/05/11 04:52:17;;;;;;;;;;;;;;;11.73;100.00;101422.41;5069918;28;20021;-60
2023/05/11 04:54:42;;;;;;;;;;;;;;;11.76;100.00;101422.06;5068138;28;19916;-60
2023/05/11 04:57:08;;;;;;;;;;;;;;;11.79;100.00;101427.09;5070577;28;19916;-60
2023/05/11 04:59:33;;;;;;;;;;;;;;;11.84;100.00;101426.59;5074594;28;19966;-59
2023/05/11 05:01:58;;;;;;;;;;;;;;;11.88;100.00;101429.78;5067758;28;20552;-60
2023/05/11 05:04:23;;;;;;;;;;;;;;;11.89;100.00;101432.28;5068282;28;19917;-60
2023/05/11 05:06:48;;;;;;;;;;;;;;;11.87;100.00;101436.09;5057840;28;19943;-59
2023/05/11 05:09:13;;;;;;;;;;;;;;;11.83;100.00;101446.22;5070834;28;19927;-60
2023/05/11 05:11:39;;;;;;;;;;;;;;;11.80;100.00;101441.22;5059166;28;19920;-60
2023/05/11 05:14:04;;;;;;;;;;;;;;;11.80;100.00;101451.88;5058709;28;20287;-60
2023/05/11 05:16:29;;;;;;;;;;;;;;;11.81;100.00;101444.72;5061271;28;20508;-61
2023/05/11 05:18:54;;;;;;;;;;;;;;;11.81;100.00;101453.53;5065943;28;19965;-60
2023/05/11 05:21:19;;;;;;;;;;;;;;;11.81;100.00;101450.88;5065266;28;19912;-60
2023/05/11 05:23:45;;;;;;;;;;;;;;;11.78;100.00;101445.88;5061266;28;19951;-60
2023/05/11 05:26:10;;;;;;;;;;;;;;;11.77;100.00;101454.81;5066844;28;19920;-60
2023/05/11 05:28:35;;;;;;;;;;;;;;;11.75;100.00;101454.16;5068390;28;19939;-60
2023/05/11 05:31:01;;;;;;;;;;;;;;;11.73;100.00;101461.47;5063035;28;20003;-59
2023/05/11 05:33:26;;;;;;;;;;;;;;;11.73;100.00;101459.66;5065966;28;19924;-59
2023/05/11 05:35:51;;;;;;;;;;;;;;;11.75;100.00;101454.16;5063353;28;20374;-59
2023/05/11 05:38:16;;;;;;;;;;;;;;;11.79;100.00;101455.53;5058064;28;19916;-60
2023/05/11 05:40:41;;;;;;;;;;;;;;;11.79;100.00;101463.50;5060043;28;20015;-60
2023/05/11 05:43:06;;;;;;;;;;;;;;;11.81;100.00;101468.66;5057644;28;20370;-60
2023/05/11 05:45:32;;;;;;;;;;;;;;;11.84;100.00;101465.69;5062052;28;20010;-60
2023/05/11 05:47:59;;;;;;;;;;;;;;;11.85;100.00;101468.16;5063194;28;19935;-60
2023/05/11 05:50:24;;;;;;;;;;;;;;;11.87;100.00;101471.53;5062115;28;20023;-60
2023/05/11 05:52:49;;;;;;;;;;;;;;;11.91;100.00;101474.69;5071944;28;20537;-60
2023/05/11 05:55:15;;;;;;;;;;;;;;;11.92;100.00;101471.88;5062475;28;20030;-60
2023/05/11 05:57:40;;;;;;;;;;;;;;;11.92;100.00;101479.84;5065326;28;19916;-60
2023/05/11 06:00:06;;;;;;;;;;;;;;;11.94;100.00;101482.34;5063903;28;19917;-61
2023/05/11 06:02:33;;;;;;;;;;;;;;;11.97;100.00;101488.19;5061990;28;19913;-60
2023/05/11 06:04:58;;;;;;;;;;;;;;;12.01;100.00;101489.50;5060650;28;19921;-61
2023/05/11 06:07:23;;;;;;;;;;;;;;;12.04;100.00;101483.03;5067028;28;19990;-60
2023/05/11 06:09:49;;;;;;;;;;;;;;;12.07;100.00;101488.84;5059708;28;19916;-60
2023/05/11 06:12:14;;;;;;;;;;;;;;;12.08;100.00;101484.34;5055200;28;19927;-60
2023/05/11 06:14:40;;;;;;;;;;;;;;;12.10;100.00;101482.34;5070066;28;19922;-59
2023/05/11 06:17:05;;;;;;;;;;;;;;;12.15;100.00;101489.88;5064519;28;19912;-61
2023/05/11 06:19:30;;;;;;;;;;;;;;;12.19;100.00;101491.22;5060150;28;19923;-60
2023/05/11 06:21:56;;;;;;;;;;;;;;;12.20;100.00;101491.03;5063033;28;19999;-60
2023/05/11 06:24:21;;;;;;;;;;;;;;;12.24;100.00;101496.88;5070673;28;19917;-60
2023/05/11 06:26:46;;;;;;;;;;;;;;;12.26;100.00;101498.38;5068989;28;19920;-59
2023/05/11 06:29:11;;;;;;;;;;;;;;;12.30;100.00;101490.88;5062228;28;20282;-60
2023/05/11 06:31:36;;;;;;;;;;;;;;;12.36;100.00;101490.19;5068570;28;20585;-62
2023/05/11 06:34:02;;;;;;;;;;;;;;;12.40;100.00;101488.88;5069480;28;19995;-62
2023/05/11 06:36:27;;;;;;;;;;;;;;;12.44;100.00;101498.22;5067936;28;20044;-61
2023/05/11 06:38:52;;;;;;;;;;;;;;;12.46;100.00;101490.88;5066130;28;19913;-62
2023/05/11 06:41:17;;;;;;;;;;;;;;;12.49;100.00;101487.88;5059314;28;19912;-61
2023/05/11 06:43:43;;;;;;;;;;;;;;;12.51;100.00;101485.06;5052302;28;19928;-62
2023/05/11 06:46:08;;;;;;;;;;;;;;;12.55;100.00;101502.38;5063071;28;20453;-62
2023/05/11 06:48:34;;;;;;;;;;;;;;;12.64;100.00;101491.53;5067051;28;19919;-61
2023/05/11 06:51:00;;;;;;;;;;;;;;;12.70;100.00;101493.50;5058958;28;20030;-61
2023/05/11 06:53:25;;;;;;;;;;;;;;;12.70;100.00;101493.50;5063341;28;19917;-61
2023/05/11 06:55:50;;;;;;;;;;;;;;;12.76;100.00;101491.19;5066834;28;19917;-61
2023/05/11 06:58:19;;;;;;;;;;;;;;;12.84;100.00;101500.00;5062615;28;19923;-61
2023/05/11 07:00:44;;;;;;;;;;;;;;;12.83;100.00;101495.69;5068696;28;20634;-63
2023/05/11 07:03:09;;;;;;;;;;;;;;;12.83;100.00;101501.00;5059620;28;19955;-62
2023/05/11 07:05:34;;;;;;;;;;;;;;;12.85;100.00;101503.50;5066844;28;20301;-61
2023/05/11 07:07:59;;;;;;;;;;;;;;;12.81;100.00;101504.84;5059790;28;20003;-61
2023/05/11 07:10:25;;;;;;;;;;;;;;;12.78;100.00;101510.53;5067914;28;19943;-62
2023/05/11 07:12:50;;;;;;;;;;;;;;;12.75;100.00;101506.34;5068049;28;19956;-62
2023/05/11 07:15:16;;;;;;;;;;;;;;;12.73;100.00;101510.19;5068935;28;20012;-62
2023/05/11 07:17:41;;;;;;;;;;;;;;;12.73;100.00;101515.53;5067093;28;19916;-61
2023/05/11 07:20:06;;;;;;;;;;;;;;;12.73;100.00;101515.53;5069662;28;19912;-62
2023/05/11 07:22:31;;;;;;;;;;;;;;;12.71;100.00;101513.84;5066920;28;20428;-62
2023/05/11 07:24:58;;;;;;;;;;;;;;;12.71;100.00;101516.50;5068159;28;20373;-61
2023/05/11 07:27:23;;;;;;;;;;;;;;;12.72;100.00;101517.31;5063222;28;19913;-62
2023/05/11 07:29:49;;;;;;;;;;;;;;;12.73;100.00;101519.03;5068653;28;19958;-62
2023/05/11 07:32:14;;;;;;;;;;;;;;;12.73;100.00;101519.03;5067826;28;19952;-60
2023/05/11 07:34:40;;;;;;;;;;;;;;;12.71;100.00;101516.50;5069000;28;20336;-61
2023/05/11 07:37:05;;;;;;;;;;;;;;;12.70;100.00;101525.50;5067765;28;20034;-60
2023/05/11 07:39:30;;;;;;;;;;;;;;;12.74;100.00;101525.19;5059054;28;19916;-60
2023/05/11 07:41:55;;;;;;;;;;;;;;;12.75;100.00;101524.19;5065053;28;19912;-60
2023/05/11 07:44:20;;;;;;;;;;;;;;;12.75;100.00;101518.84;5065331;28;19924;-62
2023/05/11 07:46:45;;;;;;;;;;;;;;;12.77;100.00;101522.19;5067111;28;20015;-59
2023/05/11 07:49:11;;;;;;;;;;;;;;;12.74;100.00;101526.03;5069075;28;20439;-61
2023/05/11 07:51:36;;;;;;;;;;;;;;;12.71;100.00;101516.50;5066674;28;20003;-59
2023/05/11 07:54:01;;;;;;;;;;;;;;;12.68;100.00;101529.31;5067089;28;19935;-59
2023/05/11 07:56:26;;;;;;;;;;;;;;;12.65;100.00;101517.16;5063185;28;20376;-59
2023/05/11 07:58:52;;;;;;;;;;;;;;;12.66;100.00;101526.84;5067746;28;19958;-60
2023/05/11 08:01:17;;;;;;;;;;;;;;;12.64;100.00;101518.16;5061298;28;19920;-60
2023/05/11 08:03:42;;;;;;;;;;;;;;;12.65;100.00;101525.16;5068410;28;20407;-60
2023/05/11 08:06:07;;;;;;;;;;;;;;;12.66;100.00;101532.16;5067641;28;19916;-60
2023/05/11 08:08:32;;;;;;;;;;;;;;;12.69;100.00;101523.00;5062199;28;19924;-61
2023/05/11 08:10:59;;;;;;;;;;;;;;;12.71;100.00;101537.81;5063870;28;19912;-60
2023/05/11 08:13:24;;;;;;;;;;;;;;;12.73;100.00;101542.19;5065400;28;19916;-60
2023/05/11 08:15:49;;;;;;;;;;;;;;;12.73;100.00;101534.19;5068369;28;19923;-60
2023/05/11 08:18:15;;;;;;;;;;;;;;;12.76;100.00;101539.19;5061596;28;20433;-60
2023/05/11 08:20:41;;;;;;;;;;;;;;;12.78;100.00;101531.84;5067964;28;19912;-60
2023/05/11 08:23:06;;;;;;;;;;;;;;;12.77;100.00;101536.34;5067477;28;20301;-61
2023/05/11 08:25:31;;;;;;;;;;;;;;;12.76;100.00;101536.50;5063321;28;19917;-61
2023/05/11 08:27:56;;;;;;;;;;;;;;;12.73;100.00;101536.84;5059976;28;20358;-60
2023/05/11 08:30:22;;;;;;;;;;;;;;;12.70;100.00;101538.00;5063905;28;19919;-60
2023/05/11 08:32:47;;;;;;;;;;;;;;;12.66;100.00;101548.16;5057933;28;19920;-60
2023/05/11 08:35:12;;;;;;;;;;;;;;;12.64;100.00;101544.00;5067646;28;20011;-60
2023/05/11 08:37:37;;;;;;;;;;;;;;;12.63;100.00;101537.81;5066964;28;20400;-61
2023/05/11 08:40:03;;;;;;;;;;;;;;;12.65;100.00;101543.00;5058128;28;19958;-60
2023/05/11 08:42:31;;;;;;;;;;;;;;;12.67;100.00;101541.81;5064477;28;19973;-60
2023/05/11 08:44:58;;;;;;;;;;;;;;;12.65;100.00;101541.16;5066326;28;20496;-60
2023/05/11 08:47:23;;;;;;;;;;;;;;;12.67;100.00;101539.16;5062990;28;19917;-60
2023/05/11 08:49:49;;;;;;;;;;;;;;;12.70;100.00;101535.31;5066551;28;19939;-61
2023/05/11 08:52:15;;;;;;;;;;;;;;;12.73;100.00;101536.84;5063472;28;20564;-60
2023/05/11 08:54:40;;;;;;;;;;;;;;;12.73;100.00;101542.19;5065522;28;19912;-61
2023/05/11 08:57:05;;;;;;;;;;;;;;;12.73;100.00;101535.00;5056817;28;20719;-61
2023/05/11 08:59:32;;;;;;;;;;;;;;;12.77;100.00;101543.50;5071044;28;19912;-61
2023/05/11 09:01:58;;;;;;;;;;;;;;;12.78;100.00;101535.34;5059315;28;19924;-60
2023/05/11 09:04:24;;;;;;;;;;;;;;;12.85;100.00;101535.50;5058403;28;20015;-60
2023/05/11 09:06:50;;;;;;;;;;;;;;;12.91;100.00;101540.16;5065989;28;20525;-60
2023/05/11 09:09:17;;;;;;;;;;;;;;;12.99;100.00;101542.78;5059708;28;19917;-61
2023/05/11 09:11:42;;;;;;;;;;;;;;;13.07;100.00;101545.47;5055476;28;19943;-61
2023/05/11 09:14:08;;;;;;;;;;;;;;;13.13;100.00;101541.28;5060484;28;19916;-60
2023/05/11 09:16:33;;;;;;;;;;;;;;;13.16;100.00;101548.94;5053868;28;20378;-60
2023/05/11 09:19:00;;;;;;;;;;;;;;;13.16;100.00;101540.94;5063623;28;19955;-61
2023/05/11 09:21:26;;;;;;;;;;;;;;;13.18;100.00;101545.13;5071471;28;19923;-60
2023/05/11 09:23:54;;;;;;;;;;;;;;;13.19;100.00;101552.13;5067584;28;19992;-60
2023/05/11 09:26:19;;;;;;;;;;;;;;;13.24;100.00;101549.78;5061896;28;19928;-60
2023/05/11 09:28:57;;;;;;;;;;;;;;;13.27;100.00;101549.44;5065421;28;19939;-60
2023/05/11 09:31:41;;;;;;;;;;;;;;;13.33;100.00;101545.28;5069267;28;19931;-60
2023/05/11 09:34:15;;;;;;;;;;;;;;;13.39;100.00;101544.59;5059717;28;20374;-61
2023/05/11 09:36:41;;;;;;;;;;;;;;;13.44;100.00;101547.56;5060520;28;20463;-61
2023/05/11 09:39:07;;;;;;;;;;;;;;;13.55;100.00;101551.69;5060278;28;19916;-60
2023/05/11 09:41:32;;;;;;;;;;;;;;;13.53;100.00;101549.19;5064797;28;19970;-60
2023/05/11 09:44:09;;;;;;;;;;;;;;;13.58;100.00;101541.50;5061244;28;19920;-60
2023/05/11 09:46:38;;;;;;;;;;;;;;;13.69;100.00;101544.81;5059520;28;19955;-60
2023/05/11 09:49:04;;;;;;;;;;;;;;;13.81;100.00;101544.22;5061264;28;19932;-60
2023/05/11 09:51:30;;;;;;;;;;;;;;;13.90;99.31;101543.19;5069857;28;19920;-60
2023/05/11 09:53:56;;;;;;;;;;;;;;;14.00;99.16;101547.47;5070539;28;19969;-61
2023/05/11 09:56:21;;;;;;;;;;;;;;;14.08;99.21;101544.75;5070051;28;19916;-60
2023/05/11 09:58:48;;;;;;;;;;;;;;;14.18;99.09;101548.06;5068444;28;20337;-60
2023/05/11 10:01:14;;;;;;;;;;;;;;;14.30;99.15;101541.28;5069789;28;20365;-60
2023/05/11 10:03:54;;;;;;;;;;;;;;;14.37;99.13;101546.75;5070309;28;19913;-61
2023/05/11 10:06:20;;;;;;;;;;;;;;;14.41;98.55;101540.84;5069637;28;19917;-61
2023/05/11 10:08:45;;;;;;;;;;;;;;;14.45;97.71;101550.19;5057371;28;20064;-61
2023/05/11 10:11:10;;;;;;;;;;;;;;;14.45;96.42;101549.38;5060155;28;19948;-61
2023/05/11 10:13:38;;;;;;;;;;;;;;;14.41;95.07;101540.84;5060502;28;19921;-60
2023/05/11 10:16:04;;;;;;;;;;;;;;;14.42;94.73;101539.84;5070884;28;19973;-61
2023/05/11 10:18:32;;;;;;;;;;;;;;;14.49;94.16;101540.84;5068405;28;19916;-60
2023/05/11 10:20:58;;;;;;;;;;;;;;;14.55;94.28;101539.28;5069135;28;19923;-61
2023/05/11 10:23:24;;;;;;;;;;;;;;;14.63;93.23;101543.72;5065402;28;19912;-60
2023/05/11 10:25:50;;;;;;;;;;;;;;;14.65;93.34;101544.38;5065975;28;19924;-60
2023/05/11 10:28:15;;;;;;;;;;;;;;;14.65;92.84;101539.88;5067583;28;20042;-61
2023/05/11 10:30:41;;;;;;;;;;;;;;;14.67;92.94;101545.84;5067201;28;20128;-60
2023/05/11 10:33:07;;;;;;;;;;;;;;;14.68;93.05;101539.50;5057569;28;19934;-60
2023/05/11 10:35:32;;;;;;;;;;;;;;;14.71;92.16;101535.63;5068420;28;19991;-60
2023/05/11 10:37:59;;;;;;;;;;;;;;;14.74;91.69;101541.44;5068499;28;20403;-61
2023/05/11 10:40:24;;;;;;;;;;;;;;;14.68;91.77;101536.00;5069569;28;19927;-60
2023/05/11 10:43:02;;;;;;;;;;;;;;;14.67;91.80;101545.03;5067232;28;19920;-60
2023/05/11 10:45:46;;;;;;;;;;;;;;;14.66;91.36;101543.38;5069521;28;20330;-60
2023/05/11 10:48:17;;;;;;;;;;;;;;;14.61;90.48;101543.91;5063934;28;19956;-61
2023/05/11 10:51:02;;;;;;;;;;;;;;;14.60;90.99;101544.94;5058423;28;21630;-61
2023/05/11 10:53:33;;;;;;;;;;;;;;;14.60;90.90;101546.78;5064447;28;19923;-61
2023/05/11 10:56:16;;;;;;;;;;;;;;;14.67;91.01;101550.38;5064962;28;19936;-61
2023/05/11 10:58:53;;;;;;;;;;;;;;;14.73;90.65;101538.97;5064614;28;19978;-61
2023/05/11 11:01:38;;;;;;;;;;;;;;;14.73;89.87;101541.63;5074041;28;19912;-61
2023/05/11 11:04:04;;;;;;;;;;;;;;;14.79;89.61;101543.59;5063186;28;19913;-60
2023/05/11 11:06:30;;;;;;;;;;;;;;;14.84;89.22;101535.88;5060028;28;19925;-61
2023/05/11 11:09:04;;;;;;;;;;;;;;;14.84;89.55;101534.03;5059779;28;20294;-61
2023/05/11 11:11:30;;;;;;;;;;;;;;;14.84;89.24;101535.88;5060181;28;19912;-60
2023/05/11 11:13:56;;;;;;;;;;;;;;;14.80;89.13;101537.25;5064102;28;19947;-60
2023/05/11 11:16:23;;;;;;;;;;;;;;;14.75;88.22;101536.97;5062642;28;20415;-61
2023/05/11 11:18:48;;;;;;;;;;;;;;;14.80;88.60;101535.41;5068215;28;19912;-61
2023/05/11 11:21:34;;;;;;;;;;;;;;;14.81;87.83;101537.06;5058274;28;19912;-61
2023/05/11 11:24:01;;;;;;;;;;;;;;;14.74;87.52;101528.06;5062789;28;19912;-61
2023/05/11 11:26:46;;;;;;;;;;;;;;;14.78;87.63;101529.41;5067299;28;19920;-61
2023/05/11 11:29:11;;;;;;;;;;;;;;;14.85;87.80;101529.50;5060215;28;19935;-61
2023/05/11 11:31:37;;;;;;;;;;;;;;;15.01;88.62;101532.00;5067643;28;19973;-61
2023/05/11 11:34:21;;;;;;;;;;;;;;;15.15;86.22;101527.69;5056592;28;19916;-61
2023/05/11 11:36:57;;;;;;;;;;;;;;;15.26;83.82;101518.38;5068111;28;19923;-61
2023/05/11 11:39:25;;;;;;;;;;;;;;;15.38;83.31;101519.59;5066371;28;19925;-62
2023/05/11 11:42:03;;;;;;;;;;;;;;;15.43;82.10;101509.16;5058631;28;19942;-61
2023/05/11 11:44:28;;;;;;;;;;;;;;;15.49;81.44;101516.44;5064954;28;20410;-61
2023/05/11 11:47:09;;;;;;;;;;;;;;;15.57;81.51;101512.81;5067934;28;19924;-60
2023/05/11 11:49:34;;;;;;;;;;;;;;;15.62;81.65;101516.66;5056513;28;20332;-61
2023/05/11 11:52:00;;;;;;;;;;;;;;;15.69;81.78;101522.06;5056464;28;19920;-61
2023/05/11 11:54:52;;;;;;;;;;;;;;;15.75;80.78;101516.78;5068336;28;19966;-61
2023/05/11 11:57:36;;;;;;;;;;;;;;;15.82;81.59;101513.34;5060600;28;20374;-60
2023/05/11 12:00:04;;;;;;;;;;;;;;;15.87;80.54;101510.94;5067219;28;20039;-61
2023/05/11 12:02:30;;;;;;;;;;;;;;;15.99;81.13;101518.31;5060697;28;19913;-61
2023/05/11 12:05:07;;;;;;;;;;;;;;;16.20;80.86;101522.03;5065158;28;19916;-61
2023/05/11 12:07:33;;;;;;;;;;;;;;;16.38;80.02;101528.59;5058895;28;19961;-61
2023/05/11 12:10:01;;;;;;;;;;;;;;;16.46;80.28;101522.25;5059880;28;20301;-61
2023/05/11 12:12:26;;;;;;;;;;;;;;;16.48;78.98;101525.59;5055556;28;20390;-60
2023/05/11 12:14:51;;;;;;;;;;;;;;;16.52;78.34;101521.53;5065862;28;19917;-61
2023/05/11 12:17:24;;;;;;;;;;;;;;;16.55;77.97;101520.31;5065441;28;19917;-61
2023/05/11 12:19:49;;;;;;;;;;;;;;;16.76;77.20;101516.78;5053084;28;19917;-61
2023/05/11 12:22:20;;;;;;;;;;;;;;;16.78;76.26;101514.75;5068704;28;19919;-61
2023/05/11 12:24:45;;;;;;;;;;;;;;;16.89;75.38;101516.88;5062754;28;20449;-61
2023/05/11 12:27:10;;;;;;;;;;;;;;;17.06;75.22;101510.19;5067738;28;19924;-61